Time;durP1;ratioP1;P1;durP2;ratioP2;P2;SDS_P1;SDS_P2;PMS_P1;PMS_P2;Temp;Humidity;BMP_temperature;BMP_pressure;BME280_temperature;BME280_humidity;BME280_pressure;Samples;Min_cycle;Max_cycle;Signal;HPM_P1;HPM_P2
2022/07/03 00:02:22;;;;;;;;;;;;;;;19.76;55.55;100022.09;6242816;23;20307;-87
2022/07/03 00:04:47;;;;;;;;;;;;;;;19.66;56.00;100014.91;6241927;23;20239;-79
2022/07/03 00:07:13;;;;;;;;;;;;;;;19.53;56.32;100016.63;6241080;23;19919;-78
2022/07/03 00:09:38;;;;;;;;;;;;;;;19.39;56.71;100022.28;6242206;23;19907;-84
2022/07/03 00:12:03;;;;;;;;;;;;;;;19.41;56.74;100005.38;6243373;23;19918;-85
2022/07/03 00:14:29;;;;;;;;;;;;;;;19.36;57.45;100006.34;6242153;23;19946;-78
2022/07/03 00:16:54;;;;;;;;;;;;;;;19.18;56.86;100006.25;6241011;23;19964;-78
2022/07/03 00:19:19;;;;;;;;;;;;;;;19.28;57.03;99998.84;6214199;23;20330;-75
2022/07/03 00:21:48;;;;;;;;;;;;;;;19.16;57.60;100007.72;6240323;23;20331;-74
2022/07/03 00:24:19;;;;;;;;;;;;;;;19.00;57.11;100003.38;6241370;23;19912;-87
2022/07/03 00:26:48;;;;;;;;;;;;;;;19.05;57.45;100004.38;6242529;23;19918;-87
2022/07/03 00:29:15;;;;;;;;;;;;;;;18.98;57.94;100002.03;6241789;23;19928;-78
2022/07/03 00:31:41;;;;;;;;;;;;;;;18.92;57.92;99997.78;6240648;23;19912;-78
2022/07/03 00:34:07;;;;;;;;;;;;;;;18.92;57.99;100004.13;6241082;23;19915;-77
2022/07/03 00:36:37;;;;;;;;;;;;;;;18.80;58.33;100007.47;6239905;23;20029;-77
2022/07/03 00:39:02;;;;;;;;;;;;;;;18.78;58.46;100002.28;6241209;23;20304;-78
2022/07/03 00:41:29;;;;;;;;;;;;;;;18.80;58.43;100004.72;6241272;23;19907;-78
2022/07/03 00:43:54;;;;;;;;;;;;;;;18.74;58.66;100004.03;6241394;23;19994;-84
2022/07/03 00:46:21;;;;;;;;;;;;;;;18.77;58.63;100008.13;6241948;23;19958;-84
2022/07/03 00:48:48;;;;;;;;;;;;;;;18.77;58.54;99997.84;6243315;23;20101;-85
2022/07/03 00:51:15;;;;;;;;;;;;;;;18.77;58.82;100003.38;6241955;23;19911;-84
2022/07/03 00:53:41;;;;;;;;;;;;;;;18.85;59.07;100004.59;6242429;23;19986;-78
2022/07/03 00:56:09;;;;;;;;;;;;;;;18.87;58.76;100007.84;6240767;23;19911;-78
2022/07/03 00:58:34;;;;;;;;;;;;;;;18.91;59.20;100002.50;6241182;23;19981;-79
2022/07/03 01:01:00;;;;;;;;;;;;;;;19.00;59.66;100008.91;6241700;23;19935;-84
2022/07/03 01:03:26;;;;;;;;;;;;;;;19.17;58.75;100007.41;6241354;23;20038;-84
2022/07/03 01:05:53;;;;;;;;;;;;;;;19.21;58.61;100016.69;6240421;23;19939;-76
2022/07/03 01:08:30;;;;;;;;;;;;;;;19.25;58.37;100001.09;6239660;23;19912;-76
2022/07/03 01:11:04;;;;;;;;;;;;;;;19.17;58.23;99999.09;6240486;23;19907;-87
2022/07/03 01:13:47;;;;;;;;;;;;;;;19.16;58.05;99996.66;6241706;23;19907;-87
2022/07/03 01:16:24;;;;;;;;;;;;;;;18.99;58.14;99992.63;6241030;23;19934;-76
2022/07/03 01:18:53;;;;;;;;;;;;;;;19.02;56.75;99990.06;6239543;23;19907;-77
2022/07/03 01:21:31;;;;;;;;;;;;;;;19.18;56.84;99981.38;6239162;23;19912;-74
2022/07/03 01:24:16;;;;;;;;;;;;;;;19.14;57.66;99980.38;6239658;23;19919;-74
2022/07/03 01:26:41;;;;;;;;;;;;;;;19.01;57.83;99987.63;6238909;23;19912;-74
2022/07/03 01:29:07;;;;;;;;;;;;;;;18.90;58.15;99984.28;6212590;23;20399;-74
2022/07/03 01:31:33;;;;;;;;;;;;;;;18.81;58.21;99983.44;6239615;23;20071;-73
2022/07/03 01:33:58;;;;;;;;;;;;;;;18.69;58.36;99975.72;6239376;23;19907;-74
2022/07/03 01:36:25;;;;;;;;;;;;;;;18.64;58.57;99982.19;6239421;23;19982;-84
2022/07/03 01:38:50;;;;;;;;;;;;;;;18.70;58.29;99980.09;6240945;23;19907;-84
2022/07/03 01:41:15;;;;;;;;;;;;;;;18.55;58.97;99979.34;6240541;23;19977;-74
2022/07/03 01:43:55;;;;;;;;;;;;;;;18.57;58.81;99976.31;6238957;23;19915;-74
2022/07/03 01:46:21;;;;;;;;;;;;;;;18.47;58.92;99978.16;6238986;23;19912;-77
2022/07/03 01:48:47;;;;;;;;;;;;;;;18.35;59.37;99969.63;6239147;23;19914;-76
2022/07/03 01:51:16;;;;;;;;;;;;;;;18.30;59.77;99974.16;6238850;23;19919;-76
2022/07/03 01:53:51;;;;;;;;;;;;;;;18.27;60.57;99983.06;6239609;23;19911;-77
2022/07/03 01:56:17;;;;;;;;;;;;;;;18.28;59.97;99968.16;6241433;23;20013;-76
2022/07/03 01:58:43;;;;;;;;;;;;;;;18.18;59.93;99976.66;6241509;23;20307;-76
2022/07/03 02:01:20;;;;;;;;;;;;;;;18.09;60.28;99971.03;6241098;23;19907;-76
2022/07/03 02:04:05;;;;;;;;;;;;;;;18.03;60.89;99967.56;6241352;23;20010;-76
2022/07/03 02:06:30;;;;;;;;;;;;;;;17.98;60.51;99962.16;6224242;23;19962;-77
2022/07/03 02:08:59;;;;;;;;;;;;;;;17.98;60.57;99962.16;6214242;23;19907;-77
2022/07/03 02:11:27;;;;;;;;;;;;;;;17.82;60.84;99961.69;6241336;23;19911;-77
2022/07/03 02:14:07;;;;;;;;;;;;;;;17.92;60.82;99957.91;6241681;23;19926;-78
2022/07/03 02:16:38;;;;;;;;;;;;;;;18.01;60.56;99957.97;6241518;23;19907;-77
2022/07/03 02:19:04;;;;;;;;;;;;;;;18.05;60.03;99953.47;6241602;23;20406;-77
2022/07/03 02:21:29;;;;;;;;;;;;;;;18.07;59.91;99954.78;6241249;23;20298;-76
2022/07/03 02:24:13;;;;;;;;;;;;;;;18.12;59.87;99955.81;6241385;23;19911;-76
2022/07/03 02:26:40;;;;;;;;;;;;;;;18.06;60.18;99955.91;6241327;23;20240;-78
2022/07/03 02:29:06;;;;;;;;;;;;;;;18.04;59.78;99952.63;6241436;23;19907;-78
2022/07/03 02:31:40;;;;;;;;;;;;;;;18.15;58.93;99957.91;6242378;23;20335;-87
2022/07/03 02:34:06;;;;;;;;;;;;;;;18.20;58.61;99957.84;6243097;23;20335;-86
2022/07/03 02:36:33;;;;;;;;;;;;;;;17.99;59.67;99969.31;6241788;23;19979;-78
2022/07/03 02:38:59;;;;;;;;;;;;;;;18.13;60.03;99962.94;6241025;23;19953;-77
2022/07/03 02:41:43;;;;;;;;;;;;;;;18.39;60.04;99959.59;6241216;23;19908;-75
2022/07/03 02:44:11;;;;;;;;;;;;;;;18.41;60.73;99949.88;6243479;23;20316;-86
2022/07/03 02:46:51;;;;;;;;;;;;;;;18.33;61.30;99958.13;6242748;23;19917;-86
2022/07/03 02:49:19;;;;;;;;;;;;;;;18.14;61.86;99959.06;6242985;23;19907;-86
2022/07/03 02:51:46;;;;;;;;;;;;;;;18.14;61.94;99959.06;6243184;23;20380;-86
2022/07/03 02:54:15;;;;;;;;;;;;;;;17.94;62.54;99958.41;6241457;23;19923;-78
2022/07/03 02:56:55;;;;;;;;;;;;;;;17.83;62.48;99950.38;6241468;23;20155;-78
2022/07/03 02:59:46;;;;;;;;;;;;;;;17.70;62.72;99956.69;6240549;23;19907;-76
2022/07/03 03:02:11;;;;;;;;;;;;;;;17.52;62.75;99959.28;6240663;23;19907;-79
2022/07/03 03:04:38;;;;;;;;;;;;;;;17.54;62.80;99959.78;6240591;23;19916;-79
2022/07/03 03:07:17;;;;;;;;;;;;;;;17.54;62.42;99964.47;6213729;23;19939;-79
2022/07/03 03:09:43;;;;;;;;;;;;;;;17.53;62.50;99957.34;6240710;23;19995;-78
2022/07/03 03:12:09;;;;;;;;;;;;;;;17.44;62.08;99955.31;6240900;23;19934;-84
2022/07/03 03:14:39;;;;;;;;;;;;;;;17.39;62.04;99961.72;6242623;23;19911;-84
2022/07/03 03:17:06;;;;;;;;;;;;;;;17.31;61.75;99962.44;6242415;23;20074;-84
2022/07/03 03:19:32;;;;;;;;;;;;;;;17.38;61.35;99964.78;6242130;23;20298;-84
2022/07/03 03:22:03;;;;;;;;;;;;;;;17.39;61.08;99961.72;6241739;23;20078;-78
2022/07/03 03:24:30;;;;;;;;;;;;;;;17.42;60.66;99956.72;6240449;23;19907;-78
2022/07/03 03:26:56;;;;;;;;;;;;;;;17.35;61.15;99960.69;6240848;23;20205;-84
2022/07/03 03:29:22;;;;;;;;;;;;;;;17.37;61.56;99966.72;6242220;23;19923;-84
2022/07/03 03:31:47;;;;;;;;;;;;;;;17.39;61.55;99967.22;6242437;23;19911;-79
2022/07/03 03:34:13;;;;;;;;;;;;;;;17.39;61.38;99964.47;6241153;23;19918;-77
2022/07/03 03:36:39;;;;;;;;;;;;;;;17.53;62.23;99954.59;6240511;23;19954;-77
2022/07/03 03:39:04;;;;;;;;;;;;;;;17.54;61.09;99959.78;6240461;23;19911;-77
2022/07/03 03:41:29;;;;;;;;;;;;;;;17.62;60.71;99959.06;6240259;23;19914;-77
2022/07/03 03:43:55;;;;;;;;;;;;;;;17.54;61.53;99962.53;6242576;23;19911;-84
2022/07/03 03:46:20;;;;;;;;;;;;;;;17.49;61.70;99962.66;6241815;23;19950;-85
2022/07/03 03:48:47;;;;;;;;;;;;;;;17.60;61.35;99966.00;6214108;23;19907;-77
2022/07/03 03:51:12;;;;;;;;;;;;;;;17.62;61.27;99966.50;6240184;23;19965;-78
2022/07/03 03:53:37;;;;;;;;;;;;;;;17.60;62.12;99964.06;6242153;23;19915;-86
2022/07/03 03:56:05;;;;;;;;;;;;;;;17.70;61.76;99965.78;6242449;23;19918;-85
2022/07/03 03:58:30;;;;;;;;;;;;;;;17.59;61.82;99959.66;6241043;23;20255;-76
2022/07/03 04:00:56;;;;;;;;;;;;;;;17.66;62.04;99962.00;6240704;23;19918;-76
2022/07/03 04:03:22;;;;;;;;;;;;;;;17.73;61.55;99961.59;6240507;23;19912;-77
2022/07/03 04:05:47;;;;;;;;;;;;;;;17.83;62.17;99966.09;6239697;23;20320;-78
2022/07/03 04:08:13;;;;;;;;;;;;;;;17.97;61.98;99963.28;6240667;23;19907;-77
2022/07/03 04:10:38;;;;;;;;;;;;;;;18.14;62.56;99965.41;6240306;23;20298;-75
2022/07/03 04:13:03;;;;;;;;;;;;;;;18.31;62.19;99959.22;6241330;23;19986;-84
2022/07/03 04:15:28;;;;;;;;;;;;;;;18.21;61.90;99964.97;6241710;23;20105;-84
2022/07/03 04:17:53;;;;;;;;;;;;;;;18.41;61.62;99957.34;6240536;23;19907;-78
2022/07/03 04:20:19;;;;;;;;;;;;;;;18.47;61.49;99956.09;6239493;23;19939;-77
2022/07/03 04:22:44;;;;;;;;;;;;;;;18.59;61.22;99957.47;6240366;23;20045;-74
2022/07/03 04:25:09;;;;;;;;;;;;;;;18.54;61.43;99961.19;6239645;23;20267;-74
2022/07/03 04:27:34;;;;;;;;;;;;;;;18.37;61.96;99961.84;6240407;23;19908;-74
2022/07/03 04:29:59;;;;;;;;;;;;;;;18.38;61.73;99963.50;6240129;23;19907;-74
2022/07/03 04:32:25;;;;;;;;;;;;;;;18.39;61.34;99963.19;6240984;23;19950;-85
2022/07/03 04:34:50;;;;;;;;;;;;;;;18.43;61.75;99971.63;6241962;23;19913;-85
2022/07/03 04:37:15;;;;;;;;;;;;;;;18.53;62.37;99971.41;6241618;23;19908;-74
2022/07/03 04:39:40;;;;;;;;;;;;;;;18.67;62.23;99971.31;6239954;23;19930;-74
2022/07/03 04:42:05;;;;;;;;;;;;;;;18.83;61.23;99978.41;6240736;23;19908;-78
2022/07/03 04:44:31;;;;;;;;;;;;;;;18.90;62.01;99979.59;6240360;23;19907;-78
2022/07/03 04:46:56;;;;;;;;;;;;;;;18.90;57.02;99978.78;6237660;23;19938;-77
2022/07/03 04:49:21;;;;;;;;;;;;;;;19.19;56.45;99983.03;6239976;23;19942;-76
2022/07/03 04:51:46;;;;;;;;;;;;;;;19.32;54.94;99983.25;6239945;23;20266;-77
2022/07/03 04:54:11;;;;;;;;;;;;;;;19.51;54.68;99985.72;6239689;23;19911;-76
2022/07/03 04:56:36;;;;;;;;;;;;;;;19.83;55.03;99980.13;6239348;23;19969;-76
2022/07/03 04:59:02;;;;;;;;;;;;;;;19.94;54.29;99975.91;6239608;23;19946;-76
2022/07/03 05:01:27;;;;;;;;;;;;;;;20.10;54.43;99988.47;6239986;23;19911;-76
2022/07/03 05:03:52;;;;;;;;;;;;;;;20.15;53.05;99986.38;6241204;23;19926;-84
2022/07/03 05:06:17;;;;;;;;;;;;;;;19.85;53.70;99980.63;6241355;23;20109;-84
2022/07/03 05:08:42;;;;;;;;;;;;;;;19.69;53.88;99983.00;6240418;23;19911;-77
2022/07/03 05:11:08;;;;;;;;;;;;;;;19.60;53.86;99989.34;6239742;23;20434;-78
2022/07/03 05:13:33;;;;;;;;;;;;;;;19.73;54.41;99991.50;6240820;23;19935;-84
2022/07/03 05:15:58;;;;;;;;;;;;;;;19.69;53.95;99992.13;6241160;23;19907;-85
2022/07/03 05:18:24;;;;;;;;;;;;;;;19.70;53.91;99991.00;6240287;23;20303;-78
2022/07/03 05:20:49;;;;;;;;;;;;;;;19.70;53.85;99981.88;6239458;23;19954;-79
2022/07/03 05:23:14;;;;;;;;;;;;;;;19.66;54.08;99991.97;6239840;23;20057;-77
2022/07/03 05:25:40;;;;;;;;;;;;;;;19.73;53.91;99978.47;6239615;23;19911;-76
2022/07/03 05:28:05;;;;;;;;;;;;;;;19.76;53.99;99988.06;6240181;23;19983;-76
2022/07/03 05:30:30;;;;;;;;;;;;;;;19.90;53.90;99980.47;6240025;23;20292;-76
2022/07/03 05:32:55;;;;;;;;;;;;;;;20.18;53.49;99988.50;6239686;23;19911;-76
2022/07/03 05:35:21;;;;;;;;;;;;;;;20.33;53.00;99986.38;6239338;23;20335;-76
2022/07/03 05:37:46;;;;;;;;;;;;;;;20.40;53.12;99991.44;6240115;23;19907;-76
2022/07/03 05:40:11;;;;;;;;;;;;;;;20.59;52.49;99988.31;6239505;23;19911;-76
2022/07/03 05:42:36;;;;;;;;;;;;;;;20.58;53.31;99989.47;6239294;23;19912;-78
2022/07/03 05:45:02;;;;;;;;;;;;;;;20.58;53.86;99991.41;6239313;23;19911;-76
2022/07/03 05:47:27;;;;;;;;;;;;;;;20.36;55.64;100013.41;6239269;23;19911;-77
2022/07/03 05:49:53;;;;;;;;;;;;;;;19.82;57.76;100011.69;6239379;23;19911;-77
2022/07/03 05:52:18;;;;;;;;;;;;;;;19.87;57.80;100019.81;6239240;23;19991;-74
2022/07/03 05:54:43;;;;;;;;;;;;;;;19.70;57.72;100018.66;6239664;23;20243;-74
2022/07/03 05:57:08;;;;;;;;;;;;;;;19.42;57.67;100018.91;6239600;23;20214;-85
2022/07/03 05:59:34;;;;;;;;;;;;;;;19.51;57.53;100029.16;6214334;23;19911;-84
2022/07/03 06:01:59;;;;;;;;;;;;;;;19.32;58.37;100033.00;6241338;23;19907;-85
2022/07/03 06:04:24;;;;;;;;;;;;;;;18.95;59.34;100030.31;6241184;23;19907;-85
2022/07/03 06:06:49;;;;;;;;;;;;;;;19.08;58.59;100034.13;6240695;23;19995;-85
2022/07/03 06:09:14;;;;;;;;;;;;;;;19.33;57.81;100032.66;6241542;23;20323;-85
2022/07/03 06:11:40;;;;;;;;;;;;;;;19.41;57.82;100036.59;6241948;23;19907;-85
2022/07/03 06:14:05;;;;;;;;;;;;;;;19.53;57.57;100040.69;6240528;23;19908;-78
2022/07/03 06:16:30;;;;;;;;;;;;;;;19.29;58.12;100039.13;6239202;23;19908;-78
2022/07/03 06:18:55;;;;;;;;;;;;;;;19.42;57.91;100038.25;6241279;23;19911;-84
2022/07/03 06:21:21;;;;;;;;;;;;;;;19.61;57.70;100045.44;6241522;23;19908;-84
2022/07/03 06:23:46;;;;;;;;;;;;;;;19.66;57.97;100045.31;6241436;23;19943;-78
2022/07/03 06:26:11;;;;;;;;;;;;;;;19.69;57.64;100035.56;6239498;23;20293;-78
2022/07/03 06:28:36;;;;;;;;;;;;;;;19.89;57.48;100039.69;6241809;23;19918;-84
2022/07/03 06:31:01;;;;;;;;;;;;;;;20.04;56.98;100040.38;6241428;23;19939;-83
2022/07/03 06:33:27;;;;;;;;;;;;;;;19.96;57.10;100044.75;6240147;23;19911;-76
2022/07/03 06:35:52;;;;;;;;;;;;;;;20.05;57.42;100037.31;6239037;23;19957;-76
2022/07/03 06:38:17;;;;;;;;;;;;;;;20.21;57.08;100033.25;6240404;23;20136;-78
2022/07/03 06:40:42;;;;;;;;;;;;;;;20.03;56.62;100041.53;6214225;23;20383;-78
2022/07/03 06:43:07;;;;;;;;;;;;;;;19.99;57.08;100046.88;6242010;23;19914;-78
2022/07/03 06:45:33;;;;;;;;;;;;;;;20.20;56.63;100045.50;6242103;23;19915;-78
2022/07/03 06:47:58;;;;;;;;;;;;;;;20.11;56.40;100043.53;6242525;23;19931;-78
2022/07/03 06:50:23;;;;;;;;;;;;;;;20.20;56.37;100034.41;6241376;23;19911;-78
2022/07/03 06:52:48;;;;;;;;;;;;;;;20.25;55.80;100037.84;6242811;23;20279;-85
2022/07/03 06:55:14;;;;;;;;;;;;;;;20.30;56.14;100042.38;6243075;23;19911;-85
2022/07/03 06:57:39;;;;;;;;;;;;;;;20.37;55.82;100051.03;6243225;23;19953;-78
2022/07/03 07:00:05;;;;;;;;;;;;;;;20.40;55.73;100047.59;6241655;23;19912;-78
2022/07/03 07:02:31;;;;;;;;;;;;;;;20.57;55.37;100045.97;6241875;23;19911;-74
2022/07/03 07:04:56;;;;;;;;;;;;;;;20.70;55.39;100054.44;6241089;23;20226;-74
2022/07/03 07:07:21;;;;;;;;;;;;;;;20.83;54.68;100044.31;6241408;23;19908;-85
2022/07/03 07:09:46;;;;;;;;;;;;;;;20.71;54.70;100047.75;6243640;23;19911;-85
2022/07/03 07:12:11;;;;;;;;;;;;;;;20.75;54.45;100048.72;6243143;23;20247;-85
2022/07/03 07:14:36;;;;;;;;;;;;;;;20.75;55.08;100051.50;6243130;23;19911;-85
2022/07/03 07:17:02;;;;;;;;;;;;;;;20.84;54.59;100049.56;6242323;23;19922;-75
2022/07/03 07:19:27;;;;;;;;;;;;;;;20.93;54.59;100059.81;6241164;23;19965;-76
2022/07/03 07:21:52;;;;;;;;;;;;;;;20.94;54.87;100058.66;6240715;23;20362;-76
2022/07/03 07:24:17;;;;;;;;;;;;;;;20.96;54.33;100056.38;6241750;23;20363;-77
2022/07/03 07:26:43;;;;;;;;;;;;;;;21.00;53.92;100057.38;6241239;23;19916;-74
2022/07/03 07:29:08;;;;;;;;;;;;;;;20.82;54.54;100062.91;6241096;23;19961;-74
2022/07/03 07:31:33;;;;;;;;;;;;;;;20.97;54.49;100046.97;6241408;23;19916;-74
2022/07/03 07:33:58;;;;;;;;;;;;;;;21.09;54.23;100049.84;6241437;23;20350;-76
2022/07/03 07:36:24;;;;;;;;;;;;;;;21.10;53.47;100051.50;6240656;23;20007;-76
2022/07/03 07:38:49;;;;;;;;;;;;;;;21.08;53.71;100048.22;6241107;23;19914;-79
2022/07/03 07:41:14;;;;;;;;;;;;;;;21.19;53.19;100045.94;6240994;23;20274;-79
2022/07/03 07:43:39;;;;;;;;;;;;;;;21.29;53.37;100043.94;6241432;23;19907;-77
2022/07/03 07:46:04;;;;;;;;;;;;;;;21.40;53.24;100049.94;6240657;23;19957;-77
2022/07/03 07:48:31;;;;;;;;;;;;;;;21.42;53.19;100047.63;6240887;23;20276;-77
2022/07/03 07:50:56;;;;;;;;;;;;;;;21.45;52.95;100044.22;6240408;23;19922;-77
2022/07/03 07:53:21;;;;;;;;;;;;;;;21.59;52.88;100043.97;6241620;23;19908;-87
2022/07/03 07:55:46;;;;;;;;;;;;;;;21.67;52.52;100040.34;6242667;23;19920;-87
2022/07/03 07:58:11;;;;;;;;;;;;;;;21.62;51.05;100040.53;6241471;23;19911;-79
2022/07/03 08:05:35;;;;;;;;;;;;;;;21.71;50.66;100040.50;6241095;23;19982;-79
2022/07/03 08:06:06;;;;;;;;;;;;;;;21.77;50.64;100038.34;6240618;23;20347;-77
2022/07/03 08:08:31;;;;;;;;;;;;;;;21.87;50.28;100042.72;6240673;23;19911;-79
2022/07/03 08:10:56;;;;;;;;;;;;;;;22.01;50.08;100043.28;6240529;23;19915;-79
2022/07/03 08:13:21;;;;;;;;;;;;;;;22.08;49.85;100039.19;6240481;23;19961;-77
2022/07/03 08:15:47;;;;;;;;;;;;;;;22.15;49.92;100043.03;6240988;23;20180;-77
2022/07/03 08:18:12;;;;;;;;;;;;;;;22.18;49.73;100041.56;6240751;23;20335;-74
2022/07/03 08:20:37;;;;;;;;;;;;;;;22.24;49.79;100042.16;6240233;23;19911;-74
2022/07/03 08:23:03;;;;;;;;;;;;;;;22.38;49.76;100036.34;6240879;23;19919;-77
2022/07/03 08:25:29;;;;;;;;;;;;;;;22.37;49.59;100031.94;6240798;23;19911;-77
2022/07/03 08:27:55;;;;;;;;;;;;;;;22.46;49.60;100034.63;6241217;23;19907;-76
2022/07/03 08:30:20;;;;;;;;;;;;;;;22.57;49.99;100035.06;6240199;23;19915;-76
2022/07/03 08:32:49;;;;;;;;;;;;;;;22.54;49.23;100035.75;6240869;23;19953;-80
2022/07/03 08:35:14;;;;;;;;;;;;;;;22.67;49.22;100039.41;6240018;23;19911;-80
2022/07/03 08:37:43;;;;;;;;;;;;;;;22.71;49.35;100027.28;6240701;23;19969;-79
2022/07/03 08:40:12;;;;;;;;;;;;;;;22.83;49.28;100037.63;6241023;23;20070;-79
2022/07/03 08:42:41;;;;;;;;;;;;;;;22.92;49.20;100033.94;6240645;23;20477;-80
2022/07/03 08:45:07;;;;;;;;;;;;;;;23.05;48.50;100032.81;6240558;23;19914;-79
2022/07/03 08:47:33;;;;;;;;;;;;;;;23.10;47.79;100042.91;6240898;23;19918;-75
2022/07/03 08:50:00;;;;;;;;;;;;;;;23.24;47.17;100045.38;6240025;23;19907;-75
2022/07/03 08:52:26;;;;;;;;;;;;;;;23.37;46.88;100035.06;6240770;23;20154;-75
2022/07/03 08:54:51;;;;;;;;;;;;;;;23.52;47.05;100036.38;6240176;23;20200;-74
2022/07/03 08:57:16;;;;;;;;;;;;;;;23.47;46.19;100038.59;6240770;23;19918;-74
2022/07/03 08:59:42;;;;;;;;;;;;;;;23.67;46.54;100042.41;6240646;23;19934;-75
2022/07/03 09:02:07;;;;;;;;;;;;;;;23.71;45.84;100035.00;6240940;23;20175;-78
2022/07/03 09:04:33;;;;;;;;;;;;;;;23.90;45.62;100045.53;6241177;23;19919;-78
2022/07/03 09:06:58;;;;;;;;;;;;;;;24.04;44.80;100041.59;6240815;23;19982;-78
2022/07/03 09:09:23;;;;;;;;;;;;;;;24.02;44.65;100038.34;6240832;23;20243;-78
2022/07/03 09:11:49;;;;;;;;;;;;;;;24.18;45.11;100037.59;6240614;23;20477;-78
2022/07/03 09:14:14;;;;;;;;;;;;;;;24.29;44.11;100044.34;6240713;23;20298;-77
2022/07/03 09:16:39;;;;;;;;;;;;;;;24.37;44.13;100048.94;6240282;23;19907;-77
2022/07/03 09:19:05;;;;;;;;;;;;;;;24.39;44.36;100050.59;6240335;23;19948;-78
2022/07/03 09:21:37;;;;;;;;;;;;;;;24.25;44.73;100048.97;6240257;23;19914;-77
2022/07/03 09:24:06;;;;;;;;;;;;;;;24.51;44.08;100042.16;6240286;23;19918;-77
2022/07/03 09:26:31;;;;;;;;;;;;;;;24.74;43.94;100046.38;6240821;23;19938;-77
2022/07/03 09:28:56;;;;;;;;;;;;;;;24.72;43.93;100049.53;6244101;23;19911;-89
2022/07/03 09:31:24;;;;;;;;;;;;;;;24.90;44.06;100046.41;6243001;23;19912;-88
2022/07/03 09:33:56;;;;;;;;;;;;;;;24.96;42.67;100050.59;6243418;23;19953;-87
2022/07/03 09:36:23;;;;;;;;;;;;;;;24.94;43.42;100045.34;6242045;23;19908;-89
2022/07/03 09:38:48;;;;;;;;;;;;;;;25.19;42.62;100041.66;6240640;23;19969;-74
2022/07/03 09:41:13;;;;;;;;;;;;;;;24.93;43.34;100052.13;6240788;23;20107;-75
2022/07/03 09:43:43;;;;;;;;;;;;;;;25.04;42.97;100041.25;6240101;23;20320;-74
2022/07/03 09:46:08;;;;;;;;;;;;;;;25.27;43.05;100046.25;6239607;23;19915;-74
2022/07/03 09:48:38;;;;;;;;;;;;;;;25.52;43.34;100048.06;6241734;23;20360;-89
2022/07/03 09:51:14;;;;;;;;;;;;;;;25.56;42.25;100042.56;6241423;23;19911;-89
2022/07/03 09:53:43;;;;;;;;;;;;;;;25.32;42.18;100047.16;6240254;23;20228;-76
2022/07/03 09:56:08;;;;;;;;;;;;;;;25.47;42.30;100045.50;6238820;23;19918;-76
2022/07/03 09:58:33;;;;;;;;;;;;;;;25.11;42.00;100057.38;6240483;23;19911;-89
2022/07/03 10:01:14;;;;;;;;;;;;;;;25.44;42.14;100041.47;6241388;23;19908;-89
2022/07/03 10:03:40;;;;;;;;;;;;;;;25.88;42.55;100037.78;6240112;23;20247;-80
2022/07/03 10:06:05;;;;;;;;;;;;;;;25.85;41.95;100032.09;6238587;23;19907;-80
2022/07/03 10:08:30;;;;;;;;;;;;;;;25.53;42.05;100030.94;6239514;23;19998;-89
2022/07/03 10:10:55;;;;;;;;;;;;;;;25.64;42.01;100038.75;6241962;23;19907;-89
2022/07/03 10:13:21;;;;;;;;;;;;;;;25.86;41.61;100040.13;6241396;23;20370;-85
2022/07/03 10:15:46;;;;;;;;;;;;;;;26.20;41.12;100044.44;6241049;23;20124;-84
2022/07/03 10:18:12;;;;;;;;;;;;;;;26.16;40.32;100029.59;6242243;23;19965;-78
2022/07/03 10:20:43;;;;;;;;;;;;;;;26.48;39.89;100034.28;6241298;23;19934;-77
2022/07/03 10:23:09;;;;;;;;;;;;;;;26.36;39.22;100033.22;6241712;23;19914;-76
2022/07/03 10:25:34;;;;;;;;;;;;;;;26.22;39.69;100026.13;6240744;23;19915;-76
2022/07/03 10:28:00;;;;;;;;;;;;;;;26.32;39.76;100041.50;6241445;23;19914;-79
2022/07/03 10:30:26;;;;;;;;;;;;;;;26.32;39.95;100035.13;6241172;23;19907;-79
2022/07/03 10:32:52;;;;;;;;;;;;;;;26.32;39.79;100037.91;6241310;23;19907;-76
2022/07/03 10:35:21;;;;;;;;;;;;;;;26.41;40.02;100035.75;6240182;23;19911;-76
2022/07/03 10:37:49;;;;;;;;;;;;;;;26.75;40.13;100035.19;6241499;23;19907;-80
2022/07/03 10:46:15;;;;;;;;;;;;;;;27.20;40.14;100028.44;6240834;23;20354;-79
2022/07/03 10:48:56;;;;;;;;;;;;;;;26.76;39.04;100033.22;6241200;23;19907;-80
2022/07/03 10:51:22;;;;;;;;;;;;;;;27.08;38.77;100030.25;6241459;23;20315;-80
2022/07/03 10:53:47;;;;;;;;;;;;;;;27.33;37.75;100037.47;6243335;23;19962;-87
2022/07/03 10:56:14;;;;;;;;;;;;;;;27.32;38.14;100033.84;6242641;23;19912;-87
2022/07/03 10:58:56;;;;;;;;;;;;;;;27.13;39.07;100035.50;6242486;23;19914;-87
2022/07/03 11:01:28;;;;;;;;;;;;;;;26.54;39.23;100033.63;6243251;23;19946;-86
2022/07/03 11:03:57;;;;;;;;;;;;;;;26.86;39.06;100026.22;6241074;23;20209;-77
2022/07/03 11:06:42;;;;;;;;;;;;;;;27.35;38.09;100030.31;6240333;23;19938;-78
2022/07/03 11:09:09;;;;;;;;;;;;;;;26.99;38.38;100035.25;6242063;23;19965;-89
2022/07/03 11:11:55;;;;;;;;;;;;;;;27.17;38.59;100027.22;6216032;23;19911;-89
2022/07/03 11:14:21;;;;;;;;;;;;;;;27.65;37.61;100019.56;6241155;23;19934;-76
2022/07/03 11:16:46;;;;;;;;;;;;;;;27.26;38.27;100015.75;6241180;23;19987;-78
2022/07/03 11:19:11;;;;;;;;;;;;;;;27.44;37.56;100015.25;6240764;23;19947;-79
2022/07/03 11:21:41;;;;;;;;;;;;;;;27.36;38.36;100020.72;6240623;23;19965;-79
2022/07/03 11:24:06;;;;;;;;;;;;;;;27.34;38.01;100011.91;6240039;23;19907;-78
2022/07/03 11:26:32;;;;;;;;;;;;;;;27.19;37.91;100007.25;6239993;23;19922;-79
2022/07/03 11:28:57;;;;;;;;;;;;;;;27.28;37.87;100013.38;6240500;23;20327;-77
2022/07/03 11:31:25;;;;;;;;;;;;;;;27.82;37.27;100013.47;6240805;23;19926;-76
2022/07/03 11:33:53;;;;;;;;;;;;;;;27.84;37.51;100016.69;6240819;23;20291;-76
2022/07/03 11:36:20;;;;;;;;;;;;;;;28.24;36.57;100013.63;6239773;23;19982;-76
2022/07/03 11:39:03;;;;;;;;;;;;;;;28.45;35.62;100009.50;6240785;23;20234;-79
2022/07/03 11:41:48;;;;;;;;;;;;;;;27.40;37.00;100015.19;6240435;23;19990;-79
2022/07/03 11:44:15;;;;;;;;;;;;;;;27.11;37.54;100012.72;6239399;23;19972;-79
2022/07/03 11:46:40;;;;;;;;;;;;;;;27.57;37.43;100013.88;6240083;23;19927;-79
2022/07/03 11:49:06;;;;;;;;;;;;;;;27.85;35.04;100011.88;6242423;23;20328;-88
2022/07/03 11:51:31;;;;;;;;;;;;;;;28.22;34.58;100013.19;6242723;23;19907;-88
2022/07/03 11:53:56;;;;;;;;;;;;;;;28.63;34.14;100011.69;6240675;23;20286;-74
2022/07/03 11:56:22;;;;;;;;;;;;;;;28.67;34.34;100026.56;6240573;23;19912;-74
2022/07/03 11:58:47;;;;;;;;;;;;;;;27.99;34.82;100016.88;6240445;23;20244;-76
2022/07/03 12:01:21;;;;;;;;;;;;;;;27.42;36.17;100012.03;6240870;23;19949;-76
2022/07/03 12:03:46;;;;;;;;;;;;;;;27.28;36.63;100013.38;6242042;23;20371;-88
2022/07/03 12:06:12;;;;;;;;;;;;;;;27.87;36.13;100014.34;6241817;23;19965;-88
2022/07/03 12:08:40;;;;;;;;;;;;;;;28.49;34.69;100010.34;6243053;23;19922;-88
2022/07/03 12:11:09;;;;;;;;;;;;;;;28.86;34.24;100010.75;6243544;23;19907;-87
2022/07/03 12:13:35;;;;;;;;;;;;;;;29.15;34.14;100011.03;6243641;23;19950;-85
2022/07/03 12:16:11;;;;;;;;;;;;;;;28.98;32.76;100013.28;6241575;23;20359;-84
2022/07/03 12:18:53;;;;;;;;;;;;;;;28.30;34.22;100012.09;6240915;23;19947;-80
2022/07/03 12:21:19;;;;;;;;;;;;;;;27.29;35.63;100003.81;6240115;23;20324;-80
2022/07/03 12:23:44;;;;;;;;;;;;;;;27.11;36.11;99998.75;6215314;23;19911;-88
2022/07/03 12:26:09;;;;;;;;;;;;;;;27.45;36.13;100002.88;6241390;23;19911;-89
2022/07/03 12:28:35;;;;;;;;;;;;;;;28.24;35.33;100001.59;6240827;23;19912;-75
2022/07/03 12:31:01;;;;;;;;;;;;;;;28.70;34.65;99997.75;6240346;23;19907;-75
2022/07/03 12:33:26;;;;;;;;;;;;;;;29.01;34.49;99995.66;6240421;23;19911;-75
2022/07/03 12:36:05;;;;;;;;;;;;;;;28.82;34.13;99985.47;6239977;23;19912;-74
2022/07/03 12:38:30;;;;;;;;;;;;;;;28.23;35.02;99988.78;6241368;23;19977;-89
2022/07/03 12:41:05;;;;;;;;;;;;;;;27.87;35.61;99983.53;6241694;23;20343;-89
2022/07/03 12:43:40;;;;;;;;;;;;;;;27.99;34.81;99990.88;6241126;23;19944;-77
2022/07/03 12:46:23;;;;;;;;;;;;;;;27.55;34.84;99987.41;6239606;23;20243;-78
2022/07/03 12:48:58;;;;;;;;;;;;;;;28.04;34.66;99985.75;6240001;23;19911;-74
2022/07/03 12:51:37;;;;;;;;;;;;;;;27.85;34.68;99987.50;6239769;23;19918;-74